createdAt,value
2022-09-27T00:01:47.120Z,82.85
2022-09-27T00:04:18.289Z,83.01
2022-09-27T00:06:49.121Z,83.15
2022-09-27T00:09:20.425Z,83.19
2022-09-27T00:11:51.351Z,83.08
2022-09-27T00:14:22.378Z,83.28
2022-09-27T00:16:53.647Z,83.33
2022-09-27T00:19:27.149Z,83.38
2022-09-27T00:22:01.508Z,83.66
2022-09-27T00:24:32.756Z,83.95
2022-09-27T00:27:03.758Z,83.93
2022-09-27T00:29:34.775Z,83.95
2022-09-27T00:32:06.240Z,83.98
2022-09-27T00:34:37.499Z,84.10
2022-09-27T00:37:08.731Z,84.14
2022-09-27T00:39:40.186Z,84.21
2022-09-27T00:42:13.444Z,84.20
2022-09-27T00:45:13.284Z,84.28
2022-09-27T00:47:55.705Z,84.37
2022-09-27T00:50:32.449Z,84.37
2022-09-27T00:53:11.416Z,84.29
2022-09-27T00:55:45.398Z,84.32
2022-09-27T00:58:19.948Z,84.28
2022-09-27T01:00:55.549Z,84.26
2022-09-27T01:03:32.585Z,84.39
2022-09-27T01:06:04.314Z,84.29
2022-09-27T01:08:35.925Z,84.32
2022-09-27T01:11:19.839Z,84.33
2022-09-27T01:14:07.317Z,84.27
2022-09-27T01:16:46.912Z,84.31
2022-09-27T01:19:44.436Z,84.28
2022-09-27T01:22:18.645Z,84.35
2022-09-27T01:25:03.123Z,84.24
2022-09-27T01:28:20.140Z,84.42
2022-09-27T01:30:55.296Z,84.52
2022-09-27T01:33:42.206Z,84.51
2022-09-27T01:36:23.624Z,84.57
2022-09-27T01:39:07.522Z,84.52
2022-09-27T01:41:46.663Z,84.41
2022-09-27T01:44:23.233Z,84.48
2022-09-27T01:46:56.982Z,84.36
2022-09-27T01:49:32.641Z,84.32
2022-09-27T01:52:07.722Z,84.40
2022-09-27T01:54:42.072Z,84.30
2022-09-27T01:57:18.186Z,84.45
2022-09-27T01:59:54.570Z,84.49
2022-09-27T02:02:31.316Z,84.54
2022-09-27T02:05:06.284Z,84.74
2022-09-27T02:07:43.495Z,84.54
2022-09-27T02:10:21.265Z,84.71
2022-09-27T02:12:58.255Z,84.81
2022-09-27T02:15:34.113Z,84.77
2022-09-27T02:18:14.883Z,84.89
2022-09-27T02:20:51.933Z,84.81
2022-09-27T02:23:24.129Z,84.73
2022-09-27T02:26:00.294Z,84.80
2022-09-27T02:28:34.730Z,84.82
2022-09-27T02:31:05.990Z,84.98
2022-09-27T02:33:42.019Z,84.91
2022-09-27T02:36:13.557Z,85.01
2022-09-27T02:38:46.412Z,85.02
2022-09-27T02:41:19.239Z,85.08
2022-09-27T02:43:54.044Z,85.14
2022-09-27T02:46:41.320Z,85.07
2022-09-27T02:49:30.955Z,85.12
2022-09-27T02:52:14.069Z,85.15
2022-09-27T02:54:53.692Z,85.11
2022-09-27T02:57:35.838Z,85.12
2022-09-27T03:00:12.050Z,85.32
2022-09-27T03:02:54.452Z,85.23
2022-09-27T03:05:29.370Z,85.31
2022-09-27T03:08:00.760Z,85.35
2022-09-27T03:10:30.235Z,85.45
2022-09-27T03:13:01.189Z,85.49
2022-09-27T03:15:30.750Z,85.53
2022-09-27T03:18:01.728Z,85.42
2022-09-27T03:20:32.722Z,85.48
2022-09-27T03:23:03.667Z,85.31
2022-09-27T03:25:34.796Z,85.41
2022-09-27T03:28:05.049Z,85.28
2022-09-27T03:30:36.210Z,85.17
2022-09-27T03:33:09.282Z,85.19
2022-09-27T03:35:41.869Z,85.24
2022-09-27T03:38:13.091Z,85.44
2022-09-27T03:40:44.521Z,85.44
2022-09-27T03:43:15.344Z,85.44
2022-09-27T03:45:47.416Z,85.49
2022-09-27T03:48:18.535Z,85.39
2022-09-27T03:50:51.769Z,85.51
2022-09-27T03:53:22.619Z,85.53
2022-09-27T03:55:53.637Z,85.61
2022-09-27T03:58:24.489Z,85.51
2022-09-27T04:00:55.755Z,85.45
2022-09-27T04:03:27.284Z,85.51
2022-09-27T04:06:00.593Z,85.47
2022-09-27T04:08:31.927Z,85.62
2022-09-27T04:11:03.588Z,85.67
2022-09-27T04:13:34.610Z,85.59
2022-09-27T04:16:04.305Z,85.55
2022-09-27T04:18:35.289Z,85.67
2022-09-27T04:21:04.788Z,85.62
2022-09-27T04:23:36.495Z,85.72
2022-09-27T04:26:07.737Z,85.65
2022-09-27T04:28:39.088Z,85.69
2022-09-27T04:31:10.105Z,85.64
2022-09-27T04:33:41.376Z,85.64
2022-09-27T04:36:28.980Z,85.61
2022-09-27T04:39:02.671Z,85.82
2022-09-27T04:41:35.778Z,85.86
2022-09-27T04:44:07.454Z,86.04
2022-09-27T04:46:38.370Z,86.08
2022-09-27T04:49:09.554Z,86.15
2022-09-27T04:51:40.329Z,86.23
2022-09-27T04:54:11.617Z,86.28
2022-09-27T04:56:41.022Z,86.26
2022-09-27T04:59:13.106Z,86.37
2022-09-27T05:01:44.428Z,86.32
2022-09-27T05:04:15.562Z,86.23
2022-09-27T05:06:45.056Z,86.23
2022-09-27T05:09:16.337Z,86.26
2022-09-27T05:11:47.304Z,86.22
2022-09-27T05:14:18.615Z,86.21
2022-09-27T05:16:49.790Z,86.00
2022-09-27T05:19:21.043Z,86.00
2022-09-27T05:21:52.328Z,85.99
2022-09-27T05:24:23.370Z,85.89
2022-09-27T05:26:54.410Z,85.97
2022-09-27T05:29:23.865Z,85.89
2022-09-27T05:31:54.732Z,85.73
2022-09-27T05:34:25.975Z,85.64
2022-09-27T05:36:57.005Z,85.62
2022-09-27T05:39:28.084Z,85.78
2022-09-27T05:41:57.785Z,86.28
2022-09-27T05:44:27.299Z,86.66
2022-09-27T05:46:59.698Z,87.04
2022-09-27T05:49:30.627Z,86.86
2022-09-27T05:52:02.254Z,86.76
2022-09-27T05:54:33.499Z,86.98
2022-09-27T05:57:05.990Z,87.15
2022-09-27T05:59:36.895Z,86.83
2022-09-27T06:02:08.071Z,86.78
2022-09-27T06:04:39.269Z,86.72
2022-09-27T06:07:08.686Z,86.73
2022-09-27T06:09:39.971Z,86.92
2022-09-27T06:12:11.986Z,86.87
2022-09-27T06:14:43.179Z,86.94
2022-09-27T06:17:14.222Z,87.01
2022-09-27T06:19:46.287Z,87.14
2022-09-27T06:22:17.184Z,87.03
2022-09-27T06:24:48.103Z,87.04
2022-09-27T06:27:19.720Z,86.99
2022-09-27T06:29:51.000Z,86.66
2022-09-27T06:32:22.110Z,86.59
2022-09-27T06:34:53.461Z,86.62
2022-09-27T06:37:27.680Z,86.35
2022-09-27T06:39:58.444Z,86.14
2022-09-27T06:42:27.990Z,86.16
2022-09-27T06:44:57.428Z,85.91
2022-09-27T06:47:30.026Z,85.75
2022-09-27T06:50:03.822Z,85.53
2022-09-27T06:52:35.092Z,85.36
2022-09-27T06:55:06.722Z,85.40
2022-09-27T06:57:55.262Z,85.18
2022-09-27T07:00:26.976Z,85.16
2022-09-27T07:03:01.987Z,85.09
2022-09-27T07:05:33.672Z,83.98
2022-09-27T07:08:05.382Z,84.18
2022-09-27T07:10:38.247Z,83.90
2022-09-27T07:13:11.063Z,83.74
2022-09-27T07:15:43.678Z,83.93
2022-09-27T07:18:14.711Z,83.73
2022-09-27T07:20:45.724Z,83.80
2022-09-27T07:23:15.616Z,83.95
2022-09-27T07:25:47.635Z,84.26
2022-09-27T07:28:22.122Z,84.13
2022-09-27T07:30:57.145Z,83.59
2022-09-27T07:33:28.078Z,83.71
2022-09-27T07:35:58.943Z,83.42
2022-09-27T07:38:28.436Z,83.61
2022-09-27T07:40:59.312Z,83.68
2022-09-27T07:43:28.630Z,83.66
2022-09-27T07:46:00.376Z,83.86
2022-09-27T07:48:31.460Z,84.05
2022-09-27T07:51:02.296Z,83.75
2022-09-27T07:53:33.711Z,83.97
2022-09-27T07:56:04.882Z,83.98
2022-09-27T07:58:36.137Z,83.98
2022-09-27T08:01:07.336Z,84.11
2022-09-27T08:03:38.179Z,84.19
2022-09-27T08:06:07.555Z,84.25
2022-09-27T08:08:38.528Z,84.42
2022-09-27T08:11:16.055Z,84.46
2022-09-27T08:13:48.047Z,84.69
2022-09-27T08:16:19.518Z,84.46
2022-09-27T08:18:50.596Z,84.23
2022-09-27T08:21:21.865Z,84.24
2022-09-27T08:23:54.060Z,84.33
2022-09-27T08:26:25.304Z,84.55
2022-09-27T08:28:56.403Z,84.55
2022-09-27T08:31:27.309Z,84.33
2022-09-27T08:33:57.158Z,83.65
2022-09-27T08:36:28.546Z,83.60
2022-09-27T08:39:00.620Z,83.26
2022-09-27T08:41:39.917Z,83.48
2022-09-27T08:44:19.196Z,83.51
2022-09-27T08:47:03.070Z,83.77
2022-09-27T08:49:37.729Z,83.62
2022-09-27T08:52:14.503Z,83.58
2022-09-27T08:54:47.010Z,83.39
2022-09-27T08:57:18.392Z,83.37
2022-09-27T08:59:55.398Z,83.72
2022-09-27T09:02:27.554Z,83.88
2022-09-27T09:05:03.810Z,83.04
2022-09-27T09:07:56.083Z,83.20
2022-09-27T09:11:03.785Z,83.39
2022-09-27T09:13:55.876Z,83.01
2022-09-27T09:16:37.113Z,82.73
2022-09-27T09:19:30.129Z,82.19
2022-09-27T09:22:07.860Z,81.88
2022-09-27T09:24:54.143Z,82.18
2022-09-27T09:27:35.028Z,82.10
2022-09-27T09:30:19.935Z,81.70
2022-09-27T09:33:11.216Z,81.81
2022-09-27T09:35:48.671Z,81.34
2022-09-27T09:38:24.628Z,81.04
2022-09-27T09:41:01.964Z,81.05
2022-09-27T09:43:37.602Z,81.14
2022-09-27T09:46:15.398Z,80.75
2022-09-27T09:48:50.977Z,80.87
2022-09-27T09:51:28.553Z,79.87
2022-09-27T09:54:05.257Z,79.36
2022-09-27T09:56:41.588Z,79.07
2022-09-27T09:59:17.467Z,79.83
2022-09-27T10:01:49.518Z,79.15
2022-09-27T10:04:24.549Z,78.53
2022-09-27T10:06:58.099Z,78.59
2022-09-27T10:09:30.418Z,78.29
2022-09-27T10:12:01.689Z,77.49
2022-09-27T10:14:33.852Z,77.44
2022-09-27T10:17:11.491Z,77.77
2022-09-27T10:19:43.084Z,77.97
2022-09-27T10:22:20.105Z,77.23
2022-09-27T10:24:56.718Z,77.88
2022-09-27T10:27:28.903Z,78.61
2022-09-27T10:30:02.937Z,78.15
2022-09-27T10:32:38.235Z,77.84
2022-09-27T10:35:36.954Z,77.73
2022-09-27T10:38:28.714Z,78.15
2022-09-27T10:41:17.871Z,76.78
2022-09-27T10:43:48.860Z,76.64
2022-09-27T10:46:27.240Z,76.89
2022-09-27T10:49:18.982Z,76.69
2022-09-27T10:51:54.451Z,76.53
2022-09-27T10:54:28.693Z,76.39
2022-09-27T10:57:04.312Z,76.90
2022-09-27T10:59:37.994Z,77.08
2022-09-27T11:02:18.723Z,76.84
2022-09-27T11:05:07.232Z,76.59
2022-09-27T11:07:49.232Z,76.55
2022-09-27T11:10:36.388Z,75.54
2022-09-27T11:13:15.431Z,75.25
2022-09-27T11:16:06.198Z,74.47
2022-09-27T11:18:45.880Z,75.25
2022-09-27T11:21:29.483Z,75.16
2022-09-27T11:24:11.929Z,75.56
2022-09-27T11:26:52.549Z,75.12
2022-09-27T11:29:37.462Z,75.53
2022-09-27T11:32:21.188Z,75.84
2022-09-27T11:35:08.145Z,74.96
2022-09-27T11:37:49.375Z,74.65
2022-09-27T11:40:32.918Z,73.90
2022-09-27T11:43:15.813Z,73.96
2022-09-27T11:46:15.385Z,73.97
2022-09-27T11:49:21.497Z,73.61
2022-09-27T11:52:10.932Z,73.18
2022-09-27T11:54:47.323Z,73.24
2022-09-27T11:57:23.608Z,73.86
2022-09-27T12:00:08.071Z,73.89
2022-09-27T12:03:06.459Z,74.28
2022-09-27T12:05:54.216Z,73.76
2022-09-27T12:08:39.871Z,73.89
2022-09-27T12:11:18.355Z,74.10
2022-09-27T12:13:54.000Z,74.64
2022-09-27T12:16:27.527Z,74.55
2022-09-27T12:18:59.056Z,73.33
2022-09-27T12:21:33.892Z,72.38
2022-09-27T12:24:06.139Z,72.35
2022-09-27T12:26:42.333Z,73.44
2022-09-27T12:29:19.914Z,73.50
2022-09-27T12:31:58.332Z,73.68
2022-09-27T12:34:39.167Z,74.30
2022-09-27T12:37:17.713Z,73.56
2022-09-27T12:39:55.743Z,73.84
2022-09-27T12:42:31.278Z,73.77
2022-09-27T12:45:02.364Z,73.21
2022-09-27T12:48:00.213Z,72.86
2022-09-27T12:50:38.111Z,71.96
2022-09-27T12:53:18.985Z,72.34
2022-09-27T12:56:14.091Z,72.42
2022-09-27T12:59:17.587Z,72.13
2022-09-27T13:02:04.290Z,72.05
2022-09-27T13:04:52.563Z,71.10
2022-09-27T13:07:37.989Z,70.65
2022-09-27T13:10:33.030Z,70.28
2022-09-27T13:13:06.330Z,69.96
2022-09-27T13:15:39.999Z,69.92
2022-09-27T13:18:32.300Z,69.61
2022-09-27T13:21:05.158Z,68.42
2022-09-27T13:24:02.310Z,67.99
2022-09-27T13:26:53.069Z,66.83
2022-09-27T13:29:35.351Z,66.85
2022-09-27T13:32:19.183Z,66.48
2022-09-27T13:35:20.124Z,65.88
2022-09-27T13:37:59.087Z,66.57
2022-09-27T13:40:33.386Z,66.98
2022-09-27T13:43:47.759Z,66.60
2022-09-27T13:46:22.105Z,66.16
2022-09-27T13:48:59.517Z,66.86
2022-09-27T13:51:44.489Z,68.32
2022-09-27T13:54:40.135Z,70.60
2022-09-27T13:57:47.716Z,71.97
2022-09-27T14:00:21.398Z,73.03
2022-09-27T14:03:04.055Z,73.91
2022-09-27T14:05:41.506Z,74.85
2022-09-27T14:08:25.351Z,74.86
2022-09-27T14:10:58.562Z,74.69
2022-09-27T14:13:32.142Z,75.99
2022-09-27T14:16:06.541Z,76.25
2022-09-27T14:18:44.698Z,76.40
2022-09-27T14:21:23.847Z,77.23
2022-09-27T14:23:55.059Z,77.75
2022-09-27T14:26:28.087Z,78.15
2022-09-27T14:29:01.155Z,78.44
2022-09-27T14:31:32.144Z,78.57
2022-09-27T14:34:10.012Z,78.53
2022-09-27T14:36:58.764Z,78.59
2022-09-27T14:39:33.519Z,78.37
2022-09-27T14:42:08.116Z,78.61
2022-09-27T14:44:44.310Z,79.38
2022-09-27T14:47:21.338Z,79.84
2022-09-27T14:49:53.750Z,79.76
2022-09-27T14:52:28.961Z,79.99
2022-09-27T14:55:07.875Z,80.01
2022-09-27T14:57:40.297Z,80.02
2022-09-27T15:00:21.072Z,79.99
2022-09-27T15:02:55.345Z,80.06
2022-09-27T15:05:31.438Z,80.12
2022-09-27T15:08:05.864Z,80.12
2022-09-27T15:10:38.133Z,79.61
2022-09-27T15:13:13.836Z,79.37
2022-09-27T15:15:46.321Z,78.73
2022-09-27T15:18:40.886Z,78.27
2022-09-27T15:21:13.661Z,78.23
2022-09-27T15:23:46.568Z,78.32
2022-09-27T15:26:20.373Z,78.55
2022-09-27T15:28:54.137Z,78.73
2022-09-27T15:31:34.919Z,78.57
2022-09-27T15:34:07.154Z,78.33
2022-09-27T15:37:00.374Z,78.22
2022-09-27T15:39:34.482Z,77.56
2022-09-27T15:42:10.821Z,77.17
2022-09-27T15:44:47.630Z,77.54
2022-09-27T15:47:56.716Z,77.90
2022-09-27T15:50:41.416Z,78.19
2022-09-27T15:53:13.266Z,78.44
2022-09-27T15:55:45.807Z,78.44
2022-09-27T15:58:21.284Z,78.24
2022-09-27T16:00:57.106Z,77.76
2022-09-27T16:03:29.630Z,76.73
2022-09-27T16:06:02.268Z,76.93
2022-09-27T16:08:33.320Z,77.14
2022-09-27T16:11:05.694Z,77.61
2022-09-27T16:13:37.114Z,77.77
2022-09-27T16:16:13.766Z,77.81
2022-09-27T16:18:44.625Z,77.97
2022-09-27T16:21:15.847Z,78.14
2022-09-27T16:23:46.911Z,78.40
2022-09-27T16:26:19.778Z,78.58
2022-09-27T16:28:50.643Z,78.71
2022-09-27T16:31:20.081Z,78.79
2022-09-27T16:33:52.251Z,78.96
2022-09-27T16:36:23.175Z,79.14
2022-09-27T16:38:54.683Z,79.20
2022-09-27T16:41:25.930Z,79.29
2022-09-27T16:43:56.624Z,79.23
2022-09-27T16:46:26.002Z,79.19
2022-09-27T16:48:56.963Z,79.32
2022-09-27T16:51:45.287Z,79.54
2022-09-27T16:54:17.689Z,79.97
2022-09-27T16:56:52.105Z,80.13
2022-09-27T16:59:25.954Z,80.55
2022-09-27T17:01:58.365Z,80.75
2022-09-27T17:04:31.007Z,81.12
2022-09-27T17:07:02.049Z,81.25
2022-09-27T17:09:33.135Z,81.45
2022-09-27T17:12:07.591Z,81.79
2022-09-27T17:14:40.757Z,81.85
2022-09-27T17:17:11.582Z,82.08
2022-09-27T17:19:42.652Z,82.12
2022-09-27T17:22:13.528Z,82.17
2022-09-27T17:24:44.549Z,82.40
2022-09-27T17:27:18.151Z,82.45
2022-09-27T17:29:49.821Z,82.64
2022-09-27T17:32:24.327Z,82.75
2022-09-27T17:34:55.974Z,82.77
2022-09-27T17:37:26.941Z,82.89
2022-09-27T17:39:58.074Z,82.99
2022-09-27T17:42:29.890Z,83.02
2022-09-27T17:45:00.762Z,83.07
2022-09-27T17:47:49.448Z,83.08
2022-09-27T17:50:28.521Z,83.26
2022-09-27T17:53:00.676Z,83.37
2022-09-27T17:55:32.701Z,83.36
2022-09-27T17:58:04.152Z,83.39
2022-09-27T18:00:35.321Z,83.43
2022-09-27T18:03:07.390Z,83.84
2022-09-27T18:05:38.560Z,83.84
2022-09-27T18:08:09.994Z,83.89
2022-09-27T18:10:40.487Z,83.87
2022-09-27T18:13:11.265Z,83.95
2022-09-27T18:15:43.456Z,84.00
2022-09-27T18:18:14.332Z,84.12
2022-09-27T18:20:48.593Z,84.40
2022-09-27T18:23:19.434Z,84.50
2022-09-27T18:25:58.167Z,84.83
2022-09-27T18:28:30.363Z,84.96
2022-09-27T18:31:19.547Z,84.94
2022-09-27T18:33:49.329Z,84.92
2022-09-27T18:36:20.063Z,84.92
2022-09-27T18:38:55.565Z,85.00
2022-09-27T18:41:28.129Z,84.91
2022-09-27T18:44:01.033Z,84.93
2022-09-27T18:46:36.538Z,84.92
2022-09-27T18:49:10.522Z,84.95
2022-09-27T18:51:46.487Z,84.94
2022-09-27T18:54:19.229Z,84.90
2022-09-27T18:56:52.375Z,84.96
2022-09-27T18:59:24.084Z,84.89
2022-09-27T19:01:55.135Z,85.00
2022-09-27T19:04:26.875Z,84.89
2022-09-27T19:06:59.493Z,84.87
2022-09-27T19:09:31.364Z,84.83
2022-09-27T19:12:02.357Z,84.74
2022-09-27T19:14:33.197Z,84.57
2022-09-27T19:17:02.445Z,84.55
2022-09-27T19:19:32.472Z,84.53
2022-09-27T19:22:02.247Z,84.57
2022-09-27T19:24:33.283Z,84.80
2022-09-27T19:27:02.635Z,84.74
2022-09-27T19:29:33.774Z,84.74
2022-09-27T19:32:04.750Z,84.77
2022-09-27T19:34:35.727Z,84.75
2022-09-27T19:37:07.049Z,84.78
2022-09-27T19:39:38.191Z,84.88
2022-09-27T19:42:09.294Z,84.78
2022-09-27T19:44:40.335Z,84.72
2022-09-27T19:47:11.750Z,84.69
2022-09-27T19:49:42.729Z,84.69
2022-09-27T19:52:12.233Z,84.57
2022-09-27T19:54:43.172Z,84.52
2022-09-27T19:57:13.746Z,84.49
2022-09-27T19:59:44.702Z,84.52
2022-09-27T20:02:14.170Z,84.50
2022-09-27T20:04:45.307Z,84.43
2022-09-27T20:07:14.749Z,84.59
2022-09-27T20:09:45.776Z,84.83
2022-09-27T20:12:16.964Z,84.96
2022-09-27T20:14:47.899Z,84.82
2022-09-27T20:17:16.995Z,84.90
2022-09-27T20:19:47.886Z,85.03
2022-09-27T20:22:18.722Z,85.06
2022-09-27T20:24:49.994Z,85.01
2022-09-27T20:27:21.468Z,84.94
2022-09-27T20:29:52.328Z,85.30
2022-09-27T20:32:27.639Z,85.36
2022-09-27T20:34:59.639Z,85.53
2022-09-27T20:37:32.877Z,85.50
2022-09-27T20:40:07.680Z,85.55
2022-09-27T20:42:38.378Z,85.57
2022-09-27T20:45:10.319Z,85.39
2022-09-27T20:47:41.258Z,85.46
2022-09-27T20:50:13.621Z,85.37
2022-09-27T20:52:44.459Z,85.35
2022-09-27T20:55:14.070Z,85.20
2022-09-27T20:57:56.875Z,85.00
2022-09-27T21:00:29.266Z,84.70
2022-09-27T21:03:00.843Z,84.58
2022-09-27T21:05:31.816Z,84.53
2022-09-27T21:08:01.377Z,84.47
2022-09-27T21:10:33.325Z,84.59
2022-09-27T21:13:04.514Z,84.77
2022-09-27T21:15:34.161Z,84.67
2022-09-27T21:18:05.320Z,84.62
2022-09-27T21:20:36.066Z,84.56
2022-09-27T21:23:06.976Z,84.51
2022-09-27T21:25:37.942Z,84.51
2022-09-27T21:28:09.197Z,84.65
2022-09-27T21:30:40.013Z,84.82
2022-09-27T21:33:09.437Z,84.80
2022-09-27T21:35:40.290Z,84.93
2022-09-27T21:38:11.187Z,84.80
2022-09-27T21:40:42.949Z,84.65
2022-09-27T21:43:13.977Z,84.67
2022-09-27T21:45:44.985Z,84.77
2022-09-27T21:48:15.878Z,84.80
2022-09-27T21:50:47.260Z,84.83
2022-09-27T21:53:18.315Z,84.76
2022-09-27T21:55:57.821Z,84.93
2022-09-27T21:58:28.967Z,84.85
2022-09-27T22:01:00.180Z,84.56
2022-09-27T22:03:31.127Z,84.60
2022-09-27T22:06:01.982Z,84.70
2022-09-27T22:08:31.380Z,84.80
2022-09-27T22:11:02.878Z,84.73
2022-09-27T22:13:34.624Z,84.79
2022-09-27T22:16:10.566Z,84.87
2022-09-27T22:18:44.172Z,84.92
2022-09-27T22:21:16.966Z,84.99
2022-09-27T22:23:48.428Z,84.98
2022-09-27T22:26:21.508Z,85.00
2022-09-27T22:28:52.810Z,85.20
2022-09-27T22:31:23.251Z,85.28
2022-09-27T22:33:55.765Z,85.22
2022-09-27T22:36:28.534Z,85.47
2022-09-27T22:38:59.811Z,85.58
2022-09-27T22:41:30.866Z,85.55
2022-09-27T22:44:02.339Z,85.51
2022-09-27T22:46:33.518Z,85.44
2022-09-27T22:49:04.365Z,85.61
2022-09-27T22:51:33.811Z,85.49
2022-09-27T22:54:05.227Z,85.52
2022-09-27T22:56:36.134Z,85.50
2022-09-27T22:59:05.678Z,85.53
2022-09-27T23:01:36.904Z,85.48
2022-09-27T23:04:07.926Z,85.63
2022-09-27T23:06:39.033Z,85.60
2022-09-27T23:09:11.486Z,85.57
2022-09-27T23:11:42.617Z,85.67
2022-09-27T23:14:15.744Z,85.60
2022-09-27T23:16:46.888Z,85.61
2022-09-27T23:19:20.080Z,85.62
2022-09-27T23:21:50.986Z,85.52
2022-09-27T23:24:23.548Z,85.57
2022-09-27T23:27:08.276Z,85.64
2022-09-27T23:29:39.395Z,85.81
2022-09-27T23:32:10.403Z,85.87
2022-09-27T23:34:42.012Z,85.85
2022-09-27T23:37:12.855Z,85.84
2022-09-27T23:39:43.707Z,85.89
2022-09-27T23:42:14.706Z,85.90
2022-09-27T23:44:45.687Z,85.79
2022-09-27T23:47:16.790Z,85.90
2022-09-27T23:49:47.836Z,85.89
2022-09-27T23:52:17.306Z,85.89
2022-09-27T23:54:48.543Z,85.92
2022-09-27T23:57:17.849Z,85.96
2022-09-27T23:59:48.780Z,85.95
